sensor_id;sensor_type;location;lat;lon;timestamp;P1;durP1;ratioP1;P2;durP2;ratioP2
44985;SDS011;30721;49.380;7.736;2023-02-01T00:01:34;9.25;;;5.00;;
44985;SDS011;30721;49.380;7.736;2023-02-01T00:04:00;9.50;;;5.05;;
44985;SDS011;30721;49.380;7.736;2023-02-01T00:06:25;7.95;;;4.90;;
44985;SDS011;30721;49.380;7.736;2023-02-01T00:08:54;8.45;;;5.25;;
44985;SDS011;30721;49.380;7.736;2023-02-01T00:11:20;7.28;;;5.07;;
44985;SDS011;30721;49.380;7.736;2023-02-01T00:13:46;8.98;;;4.72;;
44985;SDS011;30721;49.380;7.736;2023-02-01T00:16:13;6.82;;;4.45;;
44985;SDS011;30721;49.380;7.736;2023-02-01T00:18:43;7.80;;;4.38;;
44985;SDS011;30721;49.380;7.736;2023-02-01T00:21:12;9.07;;;4.32;;
44985;SDS011;30721;49.380;7.736;2023-02-01T00:23:39;7.97;;;4.47;;
44985;SDS011;30721;49.380;7.736;2023-02-01T00:26:05;9.48;;;4.97;;
44985;SDS011;30721;49.380;7.736;2023-02-01T00:28:32;6.70;;;4.47;;
44985;SDS011;30721;49.380;7.736;2023-02-01T00:31:00;7.50;;;3.83;;
44985;SDS011;30721;49.380;7.736;2023-02-01T00:33:27;6.25;;;4.13;;
44985;SDS011;30721;49.380;7.736;2023-02-01T00:35:56;7.40;;;3.85;;
44985;SDS011;30721;49.380;7.736;2023-02-01T00:38:30;7.25;;;4.38;;
44985;SDS011;30721;49.380;7.736;2023-02-01T00:41:01;7.85;;;4.32;;
44985;SDS011;30721;49.380;7.736;2023-02-01T00:43:27;9.77;;;4.95;;
44985;SDS011;30721;49.380;7.736;2023-02-01T00:45:53;9.70;;;5.13;;
44985;SDS011;30721;49.380;7.736;2023-02-01T00:48:18;9.02;;;4.78;;
44985;SDS011;30721;49.380;7.736;2023-02-01T00:50:43;9.57;;;4.75;;
44985;SDS011;30721;49.380;7.736;2023-02-01T00:53:09;7.93;;;4.55;;
44985;SDS011;30721;49.380;7.736;2023-02-01T00:55:35;12.48;;;5.85;;
44985;SDS011;30721;49.380;7.736;2023-02-01T00:58:00;9.13;;;5.43;;
44985;SDS011;30721;49.380;7.736;2023-02-01T01:00:26;8.98;;;4.82;;
44985;SDS011;30721;49.380;7.736;2023-02-01T01:02:51;9.48;;;5.65;;
44985;SDS011;30721;49.380;7.736;2023-02-01T01:05:17;7.88;;;5.10;;
44985;SDS011;30721;49.380;7.736;2023-02-01T01:07:42;10.38;;;5.22;;
44985;SDS011;30721;49.380;7.736;2023-02-01T01:10:07;7.78;;;4.90;;
44985;SDS011;30721;49.380;7.736;2023-02-01T01:12:33;7.53;;;5.00;;
44985;SDS011;30721;49.380;7.736;2023-02-01T01:14:58;9.18;;;4.80;;
44985;SDS011;30721;49.380;7.736;2023-02-01T01:17:24;10.23;;;5.38;;
44985;SDS011;30721;49.380;7.736;2023-02-01T01:19:49;6.63;;;4.30;;
44985;SDS011;30721;49.380;7.736;2023-02-01T01:22:14;12.52;;;5.38;;
44985;SDS011;30721;49.380;7.736;2023-02-01T01:24:40;8.48;;;5.07;;
44985;SDS011;30721;49.380;7.736;2023-02-01T01:27:05;9.60;;;5.30;;
44985;SDS011;30721;49.380;7.736;2023-02-01T01:29:30;10.18;;;5.13;;
44985;SDS011;30721;49.380;7.736;2023-02-01T01:31:56;8.02;;;4.90;;
44985;SDS011;30721;49.380;7.736;2023-02-01T01:34:21;6.43;;;4.97;;
44985;SDS011;30721;49.380;7.736;2023-02-01T01:36:46;10.85;;;4.80;;
44985;SDS011;30721;49.380;7.736;2023-02-01T01:39:12;9.70;;;4.75;;
44985;SDS011;30721;49.380;7.736;2023-02-01T01:41:37;8.10;;;5.20;;
44985;SDS011;30721;49.380;7.736;2023-02-01T01:44:04;10.15;;;5.40;;
44985;SDS011;30721;49.380;7.736;2023-02-01T01:46:37;9.05;;;4.80;;
44985;SDS011;30721;49.380;7.736;2023-02-01T01:51:31;9.85;;;5.60;;
44985;SDS011;30721;49.380;7.736;2023-02-01T01:54:09;13.85;;;6.75;;
44985;SDS011;30721;49.380;7.736;2023-02-01T01:56:37;10.23;;;5.85;;
44985;SDS011;30721;49.380;7.736;2023-02-01T01:59:03;12.30;;;5.95;;
44985;SDS011;30721;49.380;7.736;2023-02-01T02:01:30;11.25;;;6.43;;
44985;SDS011;30721;49.380;7.736;2023-02-01T02:03:56;11.07;;;5.72;;
44985;SDS011;30721;49.380;7.736;2023-02-01T02:08:47;10.00;;;6.70;;
44985;SDS011;30721;49.380;7.736;2023-02-01T02:11:13;10.27;;;5.40;;
44985;SDS011;30721;49.380;7.736;2023-02-01T02:13:42;10.90;;;5.63;;
44985;SDS011;30721;49.380;7.736;2023-02-01T02:27:19;8.18;;;4.20;;
44985;SDS011;30721;49.380;7.736;2023-02-01T02:32:32;7.97;;;4.70;;
44985;SDS011;30721;49.380;7.736;2023-02-01T02:38:00;10.35;;;5.22;;
44985;SDS011;30721;49.380;7.736;2023-02-01T02:40:32;11.93;;;5.57;;
44985;SDS011;30721;49.380;7.736;2023-02-01T02:46:16;12.88;;;5.28;;
44985;SDS011;30721;49.380;7.736;2023-02-01T02:54:36;12.30;;;5.80;;
44985;SDS011;30721;49.380;7.736;2023-02-01T03:00:10;15.07;;;6.05;;
44985;SDS011;30721;49.380;7.736;2023-02-01T03:02:56;12.45;;;5.75;;
44985;SDS011;30721;49.380;7.736;2023-02-01T03:05:42;11.98;;;6.15;;
44985;SDS011;30721;49.380;7.736;2023-02-01T03:08:10;10.35;;;6.22;;
44985;SDS011;30721;49.380;7.736;2023-02-01T03:15:56;15.48;;;7.03;;
44985;SDS011;30721;49.380;7.736;2023-02-01T03:21:04;11.77;;;5.93;;
44985;SDS011;30721;49.380;7.736;2023-02-01T03:23:34;14.05;;;7.28;;
44985;SDS011;30721;49.380;7.736;2023-02-01T03:26:01;12.55;;;6.65;;
44985;SDS011;30721;49.380;7.736;2023-02-01T03:28:28;14.02;;;6.68;;
44985;SDS011;30721;49.380;7.736;2023-02-01T03:30:55;13.73;;;6.55;;
44985;SDS011;30721;49.380;7.736;2023-02-01T03:33:21;15.98;;;6.50;;
44985;SDS011;30721;49.380;7.736;2023-02-01T03:38:52;9.05;;;5.50;;
44985;SDS011;30721;49.380;7.736;2023-02-01T03:46:52;9.82;;;4.50;;
44985;SDS011;30721;49.380;7.736;2023-02-01T03:51:56;11.27;;;5.63;;
44985;SDS011;30721;49.380;7.736;2023-02-01T03:54:23;9.55;;;5.80;;
44985;SDS011;30721;49.380;7.736;2023-02-01T03:56:49;12.50;;;5.03;;
44985;SDS011;30721;49.380;7.736;2023-02-01T03:59:15;11.35;;;5.95;;
44985;SDS011;30721;49.380;7.736;2023-02-01T04:01:41;12.90;;;6.38;;
44985;SDS011;30721;49.380;7.736;2023-02-01T04:04:06;9.30;;;5.57;;
44985;SDS011;30721;49.380;7.736;2023-02-01T04:06:32;9.77;;;5.30;;
44985;SDS011;30721;49.380;7.736;2023-02-01T04:08:57;12.13;;;5.75;;
44985;SDS011;30721;49.380;7.736;2023-02-01T04:11:23;11.25;;;5.80;;
44985;SDS011;30721;49.380;7.736;2023-02-01T04:13:48;9.88;;;5.45;;
44985;SDS011;30721;49.380;7.736;2023-02-01T04:16:13;10.27;;;5.55;;
44985;SDS011;30721;49.380;7.736;2023-02-01T04:18:39;8.95;;;5.28;;
44985;SDS011;30721;49.380;7.736;2023-02-01T04:21:04;9.77;;;4.47;;
44985;SDS011;30721;49.380;7.736;2023-02-01T04:23:30;8.90;;;4.72;;
44985;SDS011;30721;49.380;7.736;2023-02-01T04:26:00;11.70;;;4.60;;
44985;SDS011;30721;49.380;7.736;2023-02-01T04:28:26;10.00;;;4.18;;
44985;SDS011;30721;49.380;7.736;2023-02-01T04:30:52;8.40;;;4.30;;
44985;SDS011;30721;49.380;7.736;2023-02-01T04:33:17;11.63;;;4.20;;
44985;SDS011;30721;49.380;7.736;2023-02-01T04:35:43;7.65;;;3.97;;
44985;SDS011;30721;49.380;7.736;2023-02-01T04:38:08;6.28;;;3.80;;
44985;SDS011;30721;49.380;7.736;2023-02-01T04:40:33;6.93;;;4.75;;
44985;SDS011;30721;49.380;7.736;2023-02-01T04:43:00;8.93;;;4.45;;
44985;SDS011;30721;49.380;7.736;2023-02-01T04:45:26;9.48;;;4.35;;
44985;SDS011;30721;49.380;7.736;2023-02-01T04:47:51;8.90;;;4.35;;
44985;SDS011;30721;49.380;7.736;2023-02-01T04:50:16;9.75;;;5.00;;
44985;SDS011;30721;49.380;7.736;2023-02-01T04:52:42;11.02;;;5.00;;
44985;SDS011;30721;49.380;7.736;2023-02-01T04:55:07;8.40;;;4.95;;
44985;SDS011;30721;49.380;7.736;2023-02-01T04:57:33;10.45;;;4.88;;
44985;SDS011;30721;49.380;7.736;2023-02-01T04:59:58;7.78;;;5.05;;
44985;SDS011;30721;49.380;7.736;2023-02-01T05:02:24;10.82;;;4.80;;
44985;SDS011;30721;49.380;7.736;2023-02-01T05:04:49;8.70;;;5.20;;
44985;SDS011;30721;49.380;7.736;2023-02-01T05:07:15;16.02;;;5.72;;
44985;SDS011;30721;49.380;7.736;2023-02-01T05:09:41;11.10;;;4.93;;
44985;SDS011;30721;49.380;7.736;2023-02-01T05:12:06;11.35;;;5.68;;
44985;SDS011;30721;49.380;7.736;2023-02-01T05:14:51;12.52;;;6.82;;
44985;SDS011;30721;49.380;7.736;2023-02-01T05:17:16;10.32;;;6.18;;
44985;SDS011;30721;49.380;7.736;2023-02-01T05:19:41;11.90;;;5.93;;
44985;SDS011;30721;49.380;7.736;2023-02-01T05:22:07;14.80;;;7.25;;
44985;SDS011;30721;49.380;7.736;2023-02-01T05:24:32;13.88;;;7.25;;
44985;SDS011;30721;49.380;7.736;2023-02-01T05:26:57;12.60;;;7.05;;
44985;SDS011;30721;49.380;7.736;2023-02-01T05:29:23;11.98;;;6.38;;
44985;SDS011;30721;49.380;7.736;2023-02-01T05:31:48;11.00;;;5.70;;
44985;SDS011;30721;49.380;7.736;2023-02-01T05:34:14;11.20;;;6.85;;
44985;SDS011;30721;49.380;7.736;2023-02-01T05:36:40;11.88;;;5.35;;
44985;SDS011;30721;49.380;7.736;2023-02-01T05:39:05;11.45;;;5.72;;
44985;SDS011;30721;49.380;7.736;2023-02-01T05:41:31;9.52;;;5.05;;
44985;SDS011;30721;49.380;7.736;2023-02-01T05:43:56;12.75;;;5.28;;
44985;SDS011;30721;49.380;7.736;2023-02-01T05:46:21;10.10;;;5.07;;
44985;SDS011;30721;49.380;7.736;2023-02-01T05:48:47;8.80;;;4.82;;
44985;SDS011;30721;49.380;7.736;2023-02-01T05:51:12;9.00;;;4.63;;
44985;SDS011;30721;49.380;7.736;2023-02-01T05:53:38;9.00;;;4.97;;
44985;SDS011;30721;49.380;7.736;2023-02-01T05:56:03;9.85;;;4.60;;
44985;SDS011;30721;49.380;7.736;2023-02-01T05:58:29;8.63;;;4.20;;
44985;SDS011;30721;49.380;7.736;2023-02-01T06:00:55;6.70;;;4.10;;
44985;SDS011;30721;49.380;7.736;2023-02-01T06:03:20;7.55;;;3.88;;
44985;SDS011;30721;49.380;7.736;2023-02-01T06:05:46;8.40;;;4.00;;
44985;SDS011;30721;49.380;7.736;2023-02-01T06:08:12;5.28;;;4.28;;
44985;SDS011;30721;49.380;7.736;2023-02-01T06:10:38;7.30;;;3.42;;
44985;SDS011;30721;49.380;7.736;2023-02-01T06:13:03;4.43;;;2.40;;
44985;SDS011;30721;49.380;7.736;2023-02-01T06:15:29;5.65;;;2.72;;
44985;SDS011;30721;49.380;7.736;2023-02-01T06:17:55;5.97;;;2.63;;
44985;SDS011;30721;49.380;7.736;2023-02-01T06:20:20;4.32;;;2.35;;
44985;SDS011;30721;49.380;7.736;2023-02-01T06:22:46;4.03;;;2.20;;
44985;SDS011;30721;49.380;7.736;2023-02-01T06:25:11;8.95;;;2.33;;
44985;SDS011;30721;49.380;7.736;2023-02-01T06:27:37;4.72;;;2.30;;
44985;SDS011;30721;49.380;7.736;2023-02-01T06:30:03;3.88;;;2.20;;
44985;SDS011;30721;49.380;7.736;2023-02-01T06:32:30;8.07;;;2.95;;
44985;SDS011;30721;49.380;7.736;2023-02-01T06:34:55;6.97;;;3.03;;
44985;SDS011;30721;49.380;7.736;2023-02-01T06:37:22;9.25;;;3.30;;
44985;SDS011;30721;49.380;7.736;2023-02-01T06:39:48;10.65;;;3.53;;
44985;SDS011;30721;49.380;7.736;2023-02-01T06:42:14;7.35;;;4.20;;
44985;SDS011;30721;49.380;7.736;2023-02-01T06:44:39;9.57;;;4.45;;
44985;SDS011;30721;49.380;7.736;2023-02-01T06:47:04;9.73;;;5.45;;
44985;SDS011;30721;49.380;7.736;2023-02-01T06:49:30;12.55;;;5.60;;
44985;SDS011;30721;49.380;7.736;2023-02-01T06:51:55;11.07;;;6.22;;
44985;SDS011;30721;49.380;7.736;2023-02-01T06:54:21;13.18;;;5.43;;
44985;SDS011;30721;49.380;7.736;2023-02-01T06:56:46;15.45;;;6.55;;
44985;SDS011;30721;49.380;7.736;2023-02-01T06:59:11;12.82;;;5.88;;
44985;SDS011;30721;49.380;7.736;2023-02-01T07:01:37;12.65;;;5.18;;
44985;SDS011;30721;49.380;7.736;2023-02-01T07:04:02;9.38;;;5.40;;
44985;SDS011;30721;49.380;7.736;2023-02-01T07:06:28;10.98;;;6.32;;
44985;SDS011;30721;49.380;7.736;2023-02-01T07:08:53;13.65;;;5.85;;
44985;SDS011;30721;49.380;7.736;2023-02-01T07:11:22;10.73;;;5.32;;
44985;SDS011;30721;49.380;7.736;2023-02-01T07:13:48;10.15;;;5.45;;
44985;SDS011;30721;49.380;7.736;2023-02-01T07:16:15;10.55;;;4.40;;
44985;SDS011;30721;49.380;7.736;2023-02-01T07:18:42;10.70;;;4.80;;
44985;SDS011;30721;49.380;7.736;2023-02-01T07:21:08;14.43;;;5.63;;
44985;SDS011;30721;49.380;7.736;2023-02-01T07:23:33;11.85;;;5.80;;
44985;SDS011;30721;49.380;7.736;2023-02-01T07:26:00;13.75;;;5.30;;
44985;SDS011;30721;49.380;7.736;2023-02-01T07:28:28;9.40;;;4.75;;
44985;SDS011;30721;49.380;7.736;2023-02-01T07:30:54;14.88;;;5.53;;
44985;SDS011;30721;49.380;7.736;2023-02-01T07:33:20;11.48;;;4.63;;
44985;SDS011;30721;49.380;7.736;2023-02-01T07:35:47;11.50;;;5.25;;
44985;SDS011;30721;49.380;7.736;2023-02-01T07:38:13;27.67;;;6.50;;
44985;SDS011;30721;49.380;7.736;2023-02-01T07:40:39;10.27;;;4.85;;
44985;SDS011;30721;49.380;7.736;2023-02-01T07:43:04;13.25;;;5.53;;
44985;SDS011;30721;49.380;7.736;2023-02-01T07:45:31;13.02;;;5.18;;
44985;SDS011;30721;49.380;7.736;2023-02-01T07:47:56;13.65;;;5.22;;
44985;SDS011;30721;49.380;7.736;2023-02-01T07:50:22;10.93;;;4.90;;
44985;SDS011;30721;49.380;7.736;2023-02-01T07:52:47;10.65;;;5.07;;
44985;SDS011;30721;49.380;7.736;2023-02-01T07:55:12;11.02;;;4.47;;
44985;SDS011;30721;49.380;7.736;2023-02-01T07:57:38;9.07;;;5.05;;
44985;SDS011;30721;49.380;7.736;2023-02-01T08:00:03;17.08;;;6.18;;
44985;SDS011;30721;49.380;7.736;2023-02-01T08:02:48;13.37;;;5.43;;
44985;SDS011;30721;49.380;7.736;2023-02-01T08:05:13;15.43;;;5.13;;
44985;SDS011;30721;49.380;7.736;2023-02-01T08:07:39;15.20;;;6.25;;
44985;SDS011;30721;49.380;7.736;2023-02-01T08:10:04;14.60;;;6.22;;
44985;SDS011;30721;49.380;7.736;2023-02-01T08:12:35;14.60;;;5.28;;
44985;SDS011;30721;49.380;7.736;2023-02-01T08:15:01;11.43;;;4.80;;
44985;SDS011;30721;49.380;7.736;2023-02-01T08:17:26;10.80;;;4.47;;
44985;SDS011;30721;49.380;7.736;2023-02-01T08:19:53;15.05;;;5.18;;
44985;SDS011;30721;49.380;7.736;2023-02-01T08:22:18;13.60;;;4.85;;
44985;SDS011;30721;49.380;7.736;2023-02-01T08:24:44;11.88;;;4.90;;
44985;SDS011;30721;49.380;7.736;2023-02-01T08:27:09;13.15;;;4.60;;
44985;SDS011;30721;49.380;7.736;2023-02-01T08:29:34;16.08;;;4.85;;
44985;SDS011;30721;49.380;7.736;2023-02-01T08:32:00;12.38;;;3.65;;
44985;SDS011;30721;49.380;7.736;2023-02-01T08:34:25;11.98;;;4.45;;
44985;SDS011;30721;49.380;7.736;2023-02-01T08:36:51;16.42;;;5.40;;
44985;SDS011;30721;49.380;7.736;2023-02-01T08:39:22;10.50;;;3.90;;
44985;SDS011;30721;49.380;7.736;2023-02-01T08:41:47;13.45;;;4.13;;
44985;SDS011;30721;49.380;7.736;2023-02-01T08:44:32;10.75;;;3.42;;
44985;SDS011;30721;49.380;7.736;2023-02-01T08:46:58;10.52;;;4.35;;
44985;SDS011;30721;49.380;7.736;2023-02-01T08:49:23;10.23;;;3.05;;
44985;SDS011;30721;49.380;7.736;2023-02-01T08:51:49;7.45;;;4.18;;
44985;SDS011;30721;49.380;7.736;2023-02-01T08:54:14;11.68;;;4.75;;
44985;SDS011;30721;49.380;7.736;2023-02-01T08:56:39;9.55;;;4.50;;
44985;SDS011;30721;49.380;7.736;2023-02-01T08:59:05;10.50;;;3.05;;
44985;SDS011;30721;49.380;7.736;2023-02-01T09:01:30;11.85;;;3.40;;
44985;SDS011;30721;49.380;7.736;2023-02-01T09:03:55;13.35;;;3.97;;
44985;SDS011;30721;49.380;7.736;2023-02-01T09:06:21;13.13;;;3.83;;
44985;SDS011;30721;49.380;7.736;2023-02-01T09:08:46;11.73;;;3.00;;
44985;SDS011;30721;49.380;7.736;2023-02-01T09:11:16;11.45;;;3.13;;
44985;SDS011;30721;49.380;7.736;2023-02-01T09:13:42;8.32;;;2.85;;
44985;SDS011;30721;49.380;7.736;2023-02-01T09:16:11;8.95;;;3.95;;
44985;SDS011;30721;49.380;7.736;2023-02-01T09:18:37;9.35;;;3.55;;
44985;SDS011;30721;49.380;7.736;2023-02-01T09:21:06;7.15;;;2.90;;
44985;SDS011;30721;49.380;7.736;2023-02-01T09:23:32;14.82;;;3.55;;
44985;SDS011;30721;49.380;7.736;2023-02-01T09:26:01;7.38;;;2.85;;
44985;SDS011;30721;49.380;7.736;2023-02-01T09:28:28;12.32;;;2.92;;
44985;SDS011;30721;49.380;7.736;2023-02-01T09:30:57;13.60;;;3.45;;
44985;SDS011;30721;49.380;7.736;2023-02-01T09:33:23;13.27;;;3.00;;
44985;SDS011;30721;49.380;7.736;2023-02-01T09:35:49;9.75;;;2.63;;
44985;SDS011;30721;49.380;7.736;2023-02-01T09:38:14;10.10;;;3.58;;
44985;SDS011;30721;49.380;7.736;2023-02-01T09:40:42;11.65;;;3.17;;
44985;SDS011;30721;49.380;7.736;2023-02-01T09:43:23;14.02;;;3.10;;
44985;SDS011;30721;49.380;7.736;2023-02-01T09:48:44;12.00;;;2.80;;
44985;SDS011;30721;49.380;7.736;2023-02-01T09:51:13;13.10;;;2.88;;
44985;SDS011;30721;49.380;7.736;2023-02-01T09:53:43;12.90;;;2.90;;
44985;SDS011;30721;49.380;7.736;2023-02-01T09:58:44;9.65;;;2.67;;
44985;SDS011;30721;49.380;7.736;2023-02-01T10:01:15;11.55;;;1.98;;
44985;SDS011;30721;49.380;7.736;2023-02-01T10:03:42;10.80;;;3.58;;
44985;SDS011;30721;49.380;7.736;2023-02-01T10:06:16;10.48;;;2.83;;
44985;SDS011;30721;49.380;7.736;2023-02-01T10:11:27;10.57;;;3.20;;
44985;SDS011;30721;49.380;7.736;2023-02-01T10:22:20;12.57;;;2.55;;
44985;SDS011;30721;49.380;7.736;2023-02-01T10:24:53;16.20;;;3.30;;
44985;SDS011;30721;49.380;7.736;2023-02-01T10:27:39;13.02;;;3.63;;
44985;SDS011;30721;49.380;7.736;2023-02-01T10:30:51;19.80;;;4.47;;
44985;SDS011;30721;49.380;7.736;2023-02-01T10:33:14;17.02;;;2.92;;
44985;SDS011;30721;49.380;7.736;2023-02-01T10:35:42;13.07;;;3.55;;
44985;SDS011;30721;49.380;7.736;2023-02-01T10:38:17;9.98;;;2.67;;
44985;SDS011;30721;49.380;7.736;2023-02-01T10:40:47;11.07;;;3.15;;
44985;SDS011;30721;49.380;7.736;2023-02-01T10:43:13;10.85;;;2.85;;
44985;SDS011;30721;49.380;7.736;2023-02-01T10:45:38;11.68;;;2.97;;
44985;SDS011;30721;49.380;7.736;2023-02-01T10:48:04;11.48;;;3.10;;
44985;SDS011;30721;49.380;7.736;2023-02-01T10:56:18;9.48;;;2.63;;
44985;SDS011;30721;49.380;7.736;2023-02-01T10:58:47;8.98;;;2.15;;
44985;SDS011;30721;49.380;7.736;2023-02-01T11:01:17;10.98;;;2.53;;
44985;SDS011;30721;49.380;7.736;2023-02-01T11:08:53;8.48;;;2.78;;
44985;SDS011;30721;49.380;7.736;2023-02-01T11:11:23;7.70;;;2.50;;
44985;SDS011;30721;49.380;7.736;2023-02-01T11:13:55;18.13;;;3.75;;
44985;SDS011;30721;49.380;7.736;2023-02-01T11:19:00;14.98;;;3.33;;
44985;SDS011;30721;49.380;7.736;2023-02-01T11:21:25;12.25;;;3.15;;
44985;SDS011;30721;49.380;7.736;2023-02-01T11:23:51;6.85;;;2.00;;
44985;SDS011;30721;49.380;7.736;2023-02-01T11:26:21;13.77;;;3.75;;
44985;SDS011;30721;49.380;7.736;2023-02-01T11:28:54;10.27;;;2.55;;
44985;SDS011;30721;49.380;7.736;2023-02-01T11:31:24;8.77;;;2.22;;
44985;SDS011;30721;49.380;7.736;2023-02-01T11:33:51;11.95;;;2.25;;
44985;SDS011;30721;49.380;7.736;2023-02-01T11:36:20;10.73;;;2.60;;
44985;SDS011;30721;49.380;7.736;2023-02-01T11:41:21;14.90;;;2.88;;
44985;SDS011;30721;49.380;7.736;2023-02-01T11:43:52;9.60;;;1.90;;
44985;SDS011;30721;49.380;7.736;2023-02-01T11:46:29;12.63;;;2.80;;
44985;SDS011;30721;49.380;7.736;2023-02-01T11:52:04;4.82;;;1.70;;
44985;SDS011;30721;49.380;7.736;2023-02-01T11:59:55;9.65;;;2.38;;
44985;SDS011;30721;49.380;7.736;2023-02-01T12:05:21;11.68;;;2.20;;
44985;SDS011;30721;49.380;7.736;2023-02-01T12:13:35;8.70;;;2.35;;
44985;SDS011;30721;49.380;7.736;2023-02-01T12:43:57;12.35;;;3.00;;
44985;SDS011;30721;49.380;7.736;2023-02-01T12:52:42;12.65;;;2.33;;
44985;SDS011;30721;49.380;7.736;2023-02-01T12:55:19;5.85;;;2.13;;
44985;SDS011;30721;49.380;7.736;2023-02-01T12:57:53;7.47;;;2.30;;
44985;SDS011;30721;49.380;7.736;2023-02-01T13:05:50;9.15;;;1.92;;
44985;SDS011;30721;49.380;7.736;2023-02-01T13:08:22;11.05;;;3.08;;
44985;SDS011;30721;49.380;7.736;2023-02-01T13:10:56;6.85;;;1.70;;
44985;SDS011;30721;49.380;7.736;2023-02-01T13:13:32;6.60;;;1.60;;
44985;SDS011;30721;49.380;7.736;2023-02-01T13:16:10;8.40;;;2.53;;
44985;SDS011;30721;49.380;7.736;2023-02-01T13:18:41;8.52;;;1.83;;
44985;SDS011;30721;49.380;7.736;2023-02-01T13:21:10;6.88;;;1.80;;
44985;SDS011;30721;49.380;7.736;2023-02-01T13:23:40;7.82;;;1.98;;
44985;SDS011;30721;49.380;7.736;2023-02-01T13:26:06;6.40;;;1.63;;
44985;SDS011;30721;49.380;7.736;2023-02-01T13:28:42;10.05;;;2.33;;
44985;SDS011;30721;49.380;7.736;2023-02-01T13:31:21;11.90;;;2.47;;
44985;SDS011;30721;49.380;7.736;2023-02-01T13:44:50;8.50;;;2.58;;
44985;SDS011;30721;49.380;7.736;2023-02-01T13:49:53;9.88;;;3.05;;
44985;SDS011;30721;49.380;7.736;2023-02-01T13:52:27;8.02;;;2.60;;
44985;SDS011;30721;49.380;7.736;2023-02-01T13:55:00;9.27;;;1.60;;
44985;SDS011;30721;49.380;7.736;2023-02-01T13:57:35;8.52;;;3.03;;
44985;SDS011;30721;49.380;7.736;2023-02-01T14:02:59;8.75;;;2.78;;
44985;SDS011;30721;49.380;7.736;2023-02-01T14:10:45;8.45;;;1.45;;
44985;SDS011;30721;49.380;7.736;2023-02-01T14:26:53;6.45;;;2.83;;
44985;SDS011;30721;49.380;7.736;2023-02-01T14:29:36;7.13;;;3.10;;
44985;SDS011;30721;49.380;7.736;2023-02-01T14:32:19;7.97;;;2.38;;
44985;SDS011;30721;49.380;7.736;2023-02-01T14:44:53;7.85;;;2.47;;
44985;SDS011;30721;49.380;7.736;2023-02-01T14:53:28;7.70;;;1.73;;
44985;SDS011;30721;49.380;7.736;2023-02-01T15:00:56;7.55;;;1.50;;
44985;SDS011;30721;49.380;7.736;2023-02-01T15:08:52;7.50;;;2.08;;
44985;SDS011;30721;49.380;7.736;2023-02-01T15:11:19;7.07;;;2.20;;
44985;SDS011;30721;49.380;7.736;2023-02-01T15:13:49;8.43;;;1.85;;
44985;SDS011;30721;49.380;7.736;2023-02-01T15:16:16;7.60;;;1.90;;
44985;SDS011;30721;49.380;7.736;2023-02-01T15:18:42;4.22;;;1.85;;
44985;SDS011;30721;49.380;7.736;2023-02-01T15:21:17;9.57;;;2.75;;
44985;SDS011;30721;49.380;7.736;2023-02-01T15:23:44;13.43;;;2.83;;
44985;SDS011;30721;49.380;7.736;2023-02-01T15:26:23;9.35;;;2.50;;
44985;SDS011;30721;49.380;7.736;2023-02-01T15:28:50;10.25;;;1.80;;
44985;SDS011;30721;49.380;7.736;2023-02-01T15:31:30;8.35;;;1.63;;
44985;SDS011;30721;49.380;7.736;2023-02-01T15:33:57;12.32;;;3.00;;
44985;SDS011;30721;49.380;7.736;2023-02-01T15:36:22;9.48;;;2.85;;
44985;SDS011;30721;49.380;7.736;2023-02-01T15:39:11;5.47;;;1.60;;
44985;SDS011;30721;49.380;7.736;2023-02-01T15:41:56;6.40;;;2.63;;
44985;SDS011;30721;49.380;7.736;2023-02-01T15:49:56;7.00;;;1.90;;
44985;SDS011;30721;49.380;7.736;2023-02-01T15:54:59;9.85;;;1.73;;
44985;SDS011;30721;49.380;7.736;2023-02-01T15:57:27;7.93;;;1.92;;
44985;SDS011;30721;49.380;7.736;2023-02-01T15:59:56;10.05;;;2.22;;
44985;SDS011;30721;49.380;7.736;2023-02-01T16:02:37;8.60;;;2.75;;
44985;SDS011;30721;49.380;7.736;2023-02-01T16:08:06;8.52;;;2.05;;
44985;SDS011;30721;49.380;7.736;2023-02-01T16:10:40;11.65;;;2.97;;
44985;SDS011;30721;49.380;7.736;2023-02-01T16:13:07;7.72;;;2.75;;
44985;SDS011;30721;49.380;7.736;2023-02-01T16:15:33;5.40;;;1.90;;
44985;SDS011;30721;49.380;7.736;2023-02-01T16:17:58;10.80;;;2.50;;
44985;SDS011;30721;49.380;7.736;2023-02-01T16:20:23;7.97;;;2.05;;
44985;SDS011;30721;49.380;7.736;2023-02-01T16:22:49;7.72;;;1.52;;
44985;SDS011;30721;49.380;7.736;2023-02-01T16:25:14;6.32;;;1.85;;
44985;SDS011;30721;49.380;7.736;2023-02-01T16:27:39;8.75;;;1.58;;
44985;SDS011;30721;49.380;7.736;2023-02-01T16:30:05;8.60;;;1.95;;
44985;SDS011;30721;49.380;7.736;2023-02-01T16:32:31;7.38;;;2.20;;
44985;SDS011;30721;49.380;7.736;2023-02-01T16:34:56;7.97;;;1.60;;
44985;SDS011;30721;49.380;7.736;2023-02-01T16:37:23;8.30;;;1.67;;
44985;SDS011;30721;49.380;7.736;2023-02-01T16:39:48;8.38;;;1.70;;
44985;SDS011;30721;49.380;7.736;2023-02-01T16:42:14;5.53;;;1.67;;
44985;SDS011;30721;49.380;7.736;2023-02-01T16:44:40;11.02;;;2.65;;
44985;SDS011;30721;49.380;7.736;2023-02-01T16:47:14;5.30;;;1.58;;
44985;SDS011;30721;49.380;7.736;2023-02-01T16:49:42;7.65;;;1.58;;
44985;SDS011;30721;49.380;7.736;2023-02-01T16:52:10;5.07;;;1.33;;
44985;SDS011;30721;49.380;7.736;2023-02-01T16:54:38;6.65;;;2.08;;
44985;SDS011;30721;49.380;7.736;2023-02-01T16:57:04;8.98;;;2.10;;
44985;SDS011;30721;49.380;7.736;2023-02-01T16:59:29;5.60;;;2.03;;
44985;SDS011;30721;49.380;7.736;2023-02-01T17:01:55;9.27;;;1.80;;
44985;SDS011;30721;49.380;7.736;2023-02-01T17:04:20;6.28;;;1.90;;
44985;SDS011;30721;49.380;7.736;2023-02-01T17:06:45;9.05;;;1.40;;
44985;SDS011;30721;49.380;7.736;2023-02-01T17:09:13;6.20;;;2.40;;
44985;SDS011;30721;49.380;7.736;2023-02-01T17:11:39;5.32;;;1.90;;
44985;SDS011;30721;49.380;7.736;2023-02-01T17:14:22;9.27;;;1.60;;
44985;SDS011;30721;49.380;7.736;2023-02-01T17:16:49;8.85;;;1.17;;
44985;SDS011;30721;49.380;7.736;2023-02-01T17:19:16;8.18;;;1.65;;
44985;SDS011;30721;49.380;7.736;2023-02-01T17:21:44;7.15;;;1.50;;
44985;SDS011;30721;49.380;7.736;2023-02-01T17:24:12;13.35;;;3.97;;
44985;SDS011;30721;49.380;7.736;2023-02-01T17:26:39;11.15;;;2.33;;
44985;SDS011;30721;49.380;7.736;2023-02-01T17:29:05;7.40;;;1.40;;
44985;SDS011;30721;49.380;7.736;2023-02-01T17:31:30;11.75;;;3.15;;
44985;SDS011;30721;49.380;7.736;2023-02-01T17:33:56;9.45;;;1.75;;
44985;SDS011;30721;49.380;7.736;2023-02-01T17:36:21;5.90;;;1.98;;
44985;SDS011;30721;49.380;7.736;2023-02-01T17:38:47;7.63;;;1.63;;
44985;SDS011;30721;49.380;7.736;2023-02-01T17:41:13;11.82;;;1.65;;
44985;SDS011;30721;49.380;7.736;2023-02-01T17:43:38;7.15;;;1.52;;
44985;SDS011;30721;49.380;7.736;2023-02-01T17:48:36;6.05;;;1.20;;
44985;SDS011;30721;49.380;7.736;2023-02-01T17:51:02;8.40;;;1.60;;
44985;SDS011;30721;49.380;7.736;2023-02-01T17:53:28;5.47;;;1.73;;
44985;SDS011;30721;49.380;7.736;2023-02-01T17:55:54;7.90;;;1.70;;
44985;SDS011;30721;49.380;7.736;2023-02-01T17:58:22;10.95;;;2.70;;
44985;SDS011;30721;49.380;7.736;2023-02-01T18:00:48;6.85;;;2.47;;
44985;SDS011;30721;49.380;7.736;2023-02-01T18:05:48;6.72;;;1.50;;
44985;SDS011;30721;49.380;7.736;2023-02-01T18:08:17;8.57;;;1.98;;
44985;SDS011;30721;49.380;7.736;2023-02-01T18:10:46;8.93;;;1.90;;
44985;SDS011;30721;49.380;7.736;2023-02-01T18:13:13;7.72;;;1.55;;
44985;SDS011;30721;49.380;7.736;2023-02-01T18:15:38;11.02;;;2.78;;
44985;SDS011;30721;49.380;7.736;2023-02-01T18:18:04;6.63;;;3.42;;
44985;SDS011;30721;49.380;7.736;2023-02-01T18:20:30;8.10;;;2.33;;
44985;SDS011;30721;49.380;7.736;2023-02-01T18:22:55;8.35;;;2.20;;
44985;SDS011;30721;49.380;7.736;2023-02-01T18:25:25;9.45;;;2.05;;